Time;durP1;ratioP1;P1;durP2;ratioP2;P2;SDS_P1;SDS_P2;PMS_P1;PMS_P2;Temp;Humidity;BMP_temperature;BMP_pressure;BME280_temperature;BME280_humidity;BME280_pressure;Samples;Min_cycle;Max_cycle;Signal;HPM_P1;HPM_P2
2022/04/21 00:00:40;;;;;;;4.55;2.13;;;;;;;10.21;55.17;98601.72;5010275;28;20445;-83
2022/04/21 00:03:06;;;;;;;2.28;2.10;;;;;;;10.24;55.45;98598.53;5027343;28;20062;-84
2022/04/21 00:05:33;;;;;;;4.10;2.55;;;;;;;10.31;54.93;98606.38;5026090;28;20126;-84
2022/04/21 00:07:59;;;;;;;2.78;2.38;;;;;;;10.32;54.71;98597.28;5023034;28;20468;-84
2022/04/21 00:10:25;;;;;;;4.00;2.50;;;;;;;10.16;54.86;98582.19;5024518;28;20025;-84
2022/04/21 00:12:51;;;;;;;3.75;2.25;;;;;;;10.21;55.17;98593.72;5013872;28;20021;-83
2022/04/21 00:15:17;;;;;;;8.00;2.75;;;;;;;10.16;55.03;98590.19;5012189;28;20038;-83
2022/04/21 00:17:43;;;;;;;3.85;2.45;;;;;;;10.14;55.28;98589.63;5006737;28;20392;-84
2022/04/21 00:20:09;;;;;;;3.58;2.90;;;;;;;10.10;55.82;98597.31;5028464;28;20033;-84
2022/04/21 00:25:19;;;;;;;3.08;2.78;;;;;;;10.03;55.25;98578.03;5011332;28;20048;-84
2022/04/21 00:27:46;;;;;;;3.03;2.72;;;;;;;10.09;55.30;98590.38;5033129;28;20426;-84
2022/04/21 00:30:13;;;;;;;2.88;2.60;;;;;;;10.06;56.36;98592.75;5025396;28;20152;-84
2022/04/21 00:32:41;;;;;;;3.50;3.20;;;;;;;9.99;56.18;98595.59;5024336;28;20026;-84
2022/04/21 00:35:08;;;;;;;3.33;2.67;;;;;;;9.98;56.02;98591.31;5021111;28;20056;-84
2022/04/21 00:37:43;;;;;;;4.47;2.50;;;;;;;9.98;55.58;98582.53;5009465;28;20401;-83
2022/04/21 00:40:09;;;;;;;3.47;2.40;;;;;;;10.01;56.10;98572.16;5038347;28;20025;-84
2022/04/21 00:42:34;;;;;;;6.60;2.80;;;;;;;10.02;56.21;98580.97;5035137;28;20037;-83
2022/04/21 00:44:59;;;;;;;7.30;2.88;;;;;;;9.97;55.45;98580.91;5012458;28;20517;-83
2022/04/21 00:47:26;;;;;;;2.97;2.67;;;;;;;9.95;56.08;98575.03;5029569;28;20057;-83
2022/04/21 00:49:51;;;;;;;4.25;2.78;;;;;;;9.98;56.06;98564.66;5015855;28;20029;-83
2022/04/21 00:52:17;;;;;;;3.40;3.10;;;;;;;9.91;56.13;98563.25;5026584;28;20032;-84
2022/04/21 00:54:42;;;;;;;5.90;3.50;;;;;;;9.96;55.67;98564.09;5031092;28;20029;-83
2022/04/21 00:57:09;;;;;;;3.67;3.05;;;;;;;10.00;56.23;98570.56;5033794;28;20397;-84
2022/04/21 00:59:35;;;;;;;6.45;3.03;;;;;;;9.90;55.97;98569.63;5027839;28;20425;-83
2022/04/21 01:04:46;;;;;;;4.63;3.17;;;;;;;9.83;56.92;98567.16;5031795;28;20108;-83
2022/04/21 01:07:11;;;;;;;3.50;2.80;;;;;;;9.88;56.34;98566.41;5009357;28;20042;-84
2022/04/21 01:09:38;;;;;;;3.35;3.03;;;;;;;9.88;56.41;98569.88;5032574;28;20044;-84
2022/04/21 01:12:08;;;;;;;3.40;2.72;;;;;;;9.92;55.76;98571.00;5029497;28;20033;-83
2022/04/21 01:14:34;;;;;;;5.28;3.38;;;;;;;9.86;56.70;98564.00;5025290;28;20037;-84
2022/04/21 01:17:00;;;;;;;4.43;2.85;;;;;;;9.93;56.41;98575.28;5035732;28;20115;-84
2022/04/21 01:19:26;;;;;;;3.28;2.88;;;;;;;9.94;56.45;98579.53;4998747;28;20686;-83
2022/04/21 01:21:51;;;;;;;3.97;3.35;;;;;;;9.84;56.46;98568.78;5037183;28;20123;-83
2022/04/21 01:24:17;;;;;;;4.70;3.20;;;;;;;9.70;56.90;98554.22;4996634;28;20025;-83
2022/04/21 01:26:43;;;;;;;3.78;2.97;;;;;;;9.91;56.34;98565.91;5025023;28;20039;-84
2022/04/21 01:29:08;;;;;;;3.85;2.95;;;;;;;9.83;56.21;98562.63;5019059;28;20034;-84
2022/04/21 01:31:33;;;;;;;3.25;2.72;;;;;;;9.87;56.48;98568.28;5020098;28;20078;-84
2022/04/21 01:33:59;;;;;;;3.78;2.67;;;;;;;9.83;56.03;98561.81;5035622;28;20051;-84
2022/04/21 01:36:24;;;;;;;4.07;2.97;;;;;;;9.74;56.94;98558.03;5032107;28;20029;-83
2022/04/21 01:41:34;;;;;;;3.25;2.55;;;;;;;9.70;57.13;98551.56;5029462;28;20439;-84
2022/04/21 01:43:59;;;;;;;5.25;2.65;;;;;;;9.68;55.90;98559.00;5013085;28;20026;-84
2022/04/21 01:46:25;;;;;;;3.33;3.00;;;;;;;9.73;56.25;98561.72;5001367;28;20033;-83
2022/04/21 01:48:50;;;;;;;4.93;2.70;;;;;;;9.70;56.80;98551.56;5019855;28;20028;-83
2022/04/21 01:51:15;;;;;;;2.97;2.58;;;;;;;9.67;56.22;98544.88;5017443;28;20037;-83
2022/04/21 01:53:41;;;;;;;3.13;2.40;;;;;;;9.68;56.84;98551.81;5024848;28;20040;-84
2022/04/21 01:56:07;;;;;;;3.60;2.70;;;;;;;9.68;56.75;98551.00;5024598;28;20042;-83
2022/04/21 01:58:32;;;;;;;6.20;3.45;;;;;;;9.59;57.06;98539.97;5021670;28;20302;-83
2022/04/21 02:00:57;;;;;;;4.85;2.67;;;;;;;9.59;57.39;98532.00;5016533;28;20148;-84
2022/04/21 02:03:23;;;;;;;2.88;2.25;;;;;;;9.53;56.97;98538.31;5028886;28;20025;-84
2022/04/21 02:05:48;;;;;;;4.07;3.00;;;;;;;9.55;56.81;98532.72;5033813;28;20032;-84
2022/04/21 02:08:13;;;;;;;4.03;3.38;;;;;;;9.60;57.04;98543.47;5032597;28;20412;-84
2022/04/21 02:10:39;;;;;;;5.85;3.33;;;;;;;9.50;57.26;98533.47;5027182;28;20037;-83
2022/04/21 02:13:05;;;;;;;6.70;3.58;;;;;;;9.53;57.46;98532.19;5029518;28;20017;-84
2022/04/21 02:15:31;;;;;;;7.93;4.00;;;;;;;9.41;56.79;98520.88;5031306;28;20311;-84
2022/04/21 02:17:56;;;;;;;5.90;3.72;;;;;;;9.47;57.26;98530.53;5029545;28;20041;-84
2022/04/21 02:20:21;;;;;;;6.18;4.07;;;;;;;9.48;56.35;98542.81;5013276;28;20041;-84
2022/04/21 02:22:47;;;;;;;6.03;4.10;;;;;;;9.48;57.21;98537.47;5011562;28;20268;-84
2022/04/21 02:25:14;;;;;;;4.85;4.07;;;;;;;9.37;57.00;98530.41;5037019;28;20120;-84
2022/04/21 02:27:43;;;;;;;6.43;3.70;;;;;;;9.52;56.84;98541.25;5005153;28;20489;-84
2022/04/21 02:30:10;;;;;;;7.07;4.20;;;;;;;9.39;56.48;98545.06;5033063;28;20130;-84
2022/04/21 02:32:36;;;;;;;6.00;3.78;;;;;;;9.38;57.13;98543.47;5018533;28;20017;-84
2022/04/21 02:35:02;;;;;;;4.65;3.90;;;;;;;9.39;56.48;98526.41;5029934;28;20040;-84
2022/04/21 02:37:28;;;;;;;5.88;3.22;;;;;;;9.37;57.00;98525.09;5011359;28;20518;-84
2022/04/21 02:39:54;;;;;;;4.97;3.13;;;;;;;9.30;57.36;98535.13;5024966;28;20112;-84
2022/04/21 02:42:20;;;;;;;5.45;3.40;;;;;;;9.31;56.74;98534.03;5028538;28;20128;-84
2022/04/21 02:44:45;;;;;;;8.15;3.88;;;;;;;9.28;57.11;98526.56;5010526;28;20404;-84
2022/04/21 02:47:11;;;;;;;3.53;3.17;;;;;;;9.28;57.45;98518.56;5019945;28;20029;-84
2022/04/21 02:49:37;;;;;;;3.60;3.08;;;;;;;9.26;57.20;98523.34;5007313;28;20048;-84
2022/04/21 02:52:09;;;;;;;6.22;4.38;;;;;;;9.29;56.54;98522.84;5028637;28;20112;-83
2022/04/21 02:57:33;;;;;;;6.00;3.65;;;;;;;9.20;57.74;98505.69;4994614;28;20050;-84
2022/04/21 03:00:00;;;;;;;6.40;3.50;;;;;;;9.22;57.89;98514.25;5023932;28;20042;-83
2022/04/21 03:02:26;;;;;;;7.07;4.00;;;;;;;9.17;57.90;98499.00;5024702;28;20076;-84
2022/04/21 03:04:52;;;;;;;5.90;3.90;;;;;;;9.18;57.93;98505.94;5026060;28;20029;-84
2022/04/21 03:07:21;;;;;;;4.38;3.67;;;;;;;9.15;58.11;98500.31;5030483;28;20036;-84
2022/04/21 03:09:47;;;;;;;5.07;4.20;;;;;;;9.12;58.15;98503.44;5027481;28;20098;-84
2022/04/21 03:12:12;;;;;;;5.03;4.35;;;;;;;9.13;57.71;98492.53;5023891;28;20384;-84
2022/04/21 03:14:39;;;;;;;5.97;3.90;;;;;;;9.14;58.04;98490.69;5026202;28;20037;-84
2022/04/21 03:17:05;;;;;;;5.45;3.60;;;;;;;9.13;58.27;98492.53;5032624;28;20439;-84
2022/04/21 03:19:31;;;;;;;6.15;3.45;;;;;;;9.12;58.13;98487.47;5025178;28;20493;-84
2022/04/21 03:24:40;;;;;;;6.43;3.83;;;;;;;9.03;58.38;98490.59;5027352;28;20508;-83
2022/04/21 03:27:06;;;;;;;8.95;4.63;;;;;;;9.06;57.95;98490.06;5026676;28;20034;-83
2022/04/21 03:29:31;;;;;;;7.93;4.45;;;;;;;9.05;58.67;98485.81;5028029;28;20038;-83
2022/04/21 03:31:57;;;;;;;6.15;3.92;;;;;;;9.01;58.29;98471.41;5034843;28;20274;-84
2022/04/21 03:34:22;;;;;;;7.72;4.20;;;;;;;8.98;57.73;98477.19;5011576;28;20498;-84
2022/04/21 03:36:49;;;;;;;7.55;4.50;;;;;;;8.98;58.68;98482.53;5024068;28;20478;-84
2022/04/21 03:39:20;;;;;;;5.13;4.00;;;;;;;9.03;58.75;98495.09;5030946;28;20025;-84
2022/04/21 03:41:46;;;;;;;7.85;4.20;;;;;;;8.97;58.62;98496.09;5028503;28;20083;-84
2022/04/21 03:44:11;;;;;;;4.07;3.50;;;;;;;8.96;58.55;98483.81;5023065;28;20029;-84
2022/04/21 03:46:38;;;;;;;5.60;3.83;;;;;;;9.00;58.28;98491.06;5007300;28;20034;-84
2022/04/21 03:49:04;;;;;;;4.90;3.92;;;;;;;8.94;58.32;98486.72;5045419;28;20434;-83
2022/04/21 03:51:31;;;;;;;8.48;4.10;;;;;;;8.93;58.51;98487.78;5015520;28;20632;-83
2022/04/21 03:53:56;;;;;;;5.50;3.72;;;;;;;8.91;58.28;98489.88;5008652;28;20495;-84
2022/04/21 03:56:22;;;;;;;4.85;4.18;;;;;;;8.85;58.72;98477.56;5014683;28;20092;-84
2022/04/21 03:58:47;;;;;;;5.45;4.40;;;;;;;8.83;58.91;98474.34;5016074;28;20064;-84
2022/04/21 04:01:12;;;;;;;4.03;3.55;;;;;;;8.91;58.58;98481.09;5027650;28;20033;-84
2022/04/21 04:03:38;;;;;;;5.45;3.92;;;;;;;8.92;58.24;98480.84;5027000;28;20044;-83
2022/04/21 04:06:03;;;;;;;8.20;5.00;;;;;;;8.97;58.76;98491.56;4995443;28;20420;-82
2022/04/21 04:11:12;;;;;;;8.00;5.20;;;;;;;8.97;59.82;98506.72;5032559;28;20091;-83
2022/04/21 04:13:38;;;;;;;10.52;4.97;;;;;;;8.93;59.71;98500.28;5011951;28;20037;-82
2022/04/21 04:16:03;;;;;;;7.88;5.18;;;;;;;8.94;60.04;98512.53;5011488;28;20112;-83
2022/04/21 04:18:29;;;;;;;7.32;5.28;;;;;;;8.90;59.91;98511.44;5007151;28;20044;-83
2022/04/21 04:20:54;;;;;;;6.65;4.80;;;;;;;8.86;60.25;98510.31;5008739;28;20059;-83
2022/04/21 04:23:21;;;;;;;7.70;5.35;;;;;;;8.87;59.91;98512.72;5006442;28;20124;-82
2022/04/21 04:25:47;;;;;;;7.10;5.28;;;;;;;8.77;60.40;98509.09;5040847;28;20449;-82
2022/04/21 04:28:12;;;;;;;6.65;5.20;;;;;;;8.75;60.39;98509.38;5022723;28;20056;-82
2022/04/21 04:30:38;;;;;;;6.80;5.60;;;;;;;8.80;60.12;98500.66;5007203;28;20120;-82
2022/04/21 04:33:05;;;;;;;8.55;6.47;;;;;;;8.74;60.58;98506.94;5012028;28;20080;-82
2022/04/21 04:35:31;;;;;;;8.77;5.55;;;;;;;8.66;61.24;98496.72;5017502;28;20029;-82
2022/04/21 04:37:56;;;;;;;8.43;6.00;;;;;;;8.68;60.74;98507.91;5016321;28;20049;-82
2022/04/21 04:40:22;;;;;;;8.77;4.95;;;;;;;8.72;61.39;98520.47;5024951;28;20141;-82
2022/04/21 04:42:47;;;;;;;8.35;5.60;;;;;;;8.70;61.21;98519.13;5024685;28;20033;-81
2022/04/21 04:47:56;;;;;;;8.73;5.20;;;;;;;8.67;61.40;98515.09;5026552;28;20039;-82
2022/04/21 04:50:21;;;;;;;7.00;5.00;;;;;;;8.69;61.60;98518.31;5011604;28;20030;-82
2022/04/21 04:52:47;;;;;;;6.07;5.40;;;;;;;8.76;61.39;98518.94;5009362;28;20083;-82
2022/04/21 04:55:13;;;;;;;8.15;5.55;;;;;;;8.73;62.46;98522.13;5016068;28;20373;-82
2022/04/21 04:57:39;;;;;;;7.15;5.45;;;;;;;8.79;61.69;98522.97;5016984;28;20450;-81
2022/04/21 05:00:05;;;;;;;8.23;5.85;;;;;;;8.77;61.49;98519.75;5034915;28;20120;-81
2022/04/21 05:02:31;;;;;;;7.95;5.40;;;;;;;8.73;61.61;98516.78;5023900;28;20030;-81
2022/04/21 05:04:56;;;;;;;7.65;5.10;;;;;;;8.74;61.42;98522.88;5034166;28;20052;-82
2022/04/21 05:07:22;;;;;;;6.03;4.57;;;;;;;8.76;61.69;98523.44;5027388;28;20033;-81
2022/04/21 05:09:47;;;;;;;7.28;5.15;;;;;;;8.77;61.87;98525.88;5033683;28;20528;-82
2022/04/21 05:12:12;;;;;;;7.28;5.70;;;;;;;8.81;62.25;98523.53;5024602;28;20024;-82
2022/04/21 05:14:38;;;;;;;6.28;5.00;;;;;;;8.77;61.81;98530.41;5017847;28;20040;-82
2022/04/21 05:17:03;;;;;;;10.10;5.10;;;;;;;8.78;62.12;98524.03;5015323;28;20379;-82
2022/04/21 05:19:29;;;;;;;9.20;5.45;;;;;;;8.83;62.55;98514.25;5025460;28;20026;-82
2022/04/21 05:22:00;;;;;;;6.00;5.20;;;;;;;8.77;61.97;98509.09;5024196;28;20042;-81
2022/04/21 05:24:28;;;;;;;8.55;4.82;;;;;;;8.82;62.09;98517.19;5023131;28;20025;-81
2022/04/21 05:26:53;;;;;;;5.68;4.85;;;;;;;8.84;61.94;98523.88;5008325;28;20029;-81
2022/04/21 05:32:04;;;;;;;5.50;4.72;;;;;;;8.92;61.98;98522.63;5023471;28;20068;-82
2022/04/21 05:34:32;;;;;;;8.48;4.90;;;;;;;8.93;61.53;98522.38;5036533;28;20462;-82
2022/04/21 05:37:01;;;;;;;8.77;5.47;;;;;;;8.97;61.85;98526.19;5005977;28;20021;-82
2022/04/21 05:39:28;;;;;;;6.68;5.70;;;;;;;9.02;62.55;98528.88;5026787;28;20029;-81
2022/04/21 05:41:54;;;;;;;7.57;5.80;;;;;;;9.01;61.70;98516.66;5026858;28;20037;-81
2022/04/21 05:44:21;;;;;;;6.72;5.15;;;;;;;8.98;62.44;98519.78;5024046;28;20048;-81
2022/04/21 05:46:47;;;;;;;9.00;5.15;;;;;;;9.03;61.86;98527.84;5028443;28;20029;-81
2022/04/21 05:49:12;;;;;;;7.70;4.65;;;;;;;8.97;61.93;98523.50;5025746;28;20489;-81
2022/04/21 05:51:38;;;;;;;6.97;4.95;;;;;;;8.99;62.46;98529.41;5016200;28;20033;-82
2022/04/21 05:54:06;;;;;;;6.93;5.38;;;;;;;8.98;62.77;98530.44;5028121;28;20041;-82
2022/04/21 05:56:32;;;;;;;11.93;5.35;;;;;;;8.97;63.03;98530.69;5034469;28;20065;-82
2022/04/21 05:58:58;;;;;;;8.02;5.60;;;;;;;8.97;61.58;98534.16;5028366;28;20083;-82
2022/04/21 06:01:24;;;;;;;8.18;5.03;;;;;;;8.95;62.53;98538.91;5026879;28;20500;-82
2022/04/21 06:03:52;;;;;;;6.05;5.13;;;;;;;8.98;62.11;98546.41;5032969;28;20044;-82
2022/04/21 06:06:18;;;;;;;5.95;5.00;;;;;;;9.02;62.44;98544.06;5019201;28;20087;-82
2022/04/21 06:08:45;;;;;;;7.85;5.30;;;;;;;9.04;62.03;98545.41;5010962;28;20469;-82
2022/04/21 06:11:13;;;;;;;7.30;4.82;;;;;;;9.02;62.49;98533.44;5026199;28;20074;-82
2022/04/21 06:13:40;;;;;;;7.95;5.45;;;;;;;9.02;62.44;98536.09;5027581;28;20087;-81
2022/04/21 06:16:06;;;;;;;7.88;4.93;;;;;;;9.06;62.29;98535.31;5031356;28;20382;-81
2022/04/21 06:18:32;;;;;;;10.43;5.40;;;;;;;9.06;62.66;98538.00;5013575;28;20071;-81
2022/04/21 06:21:00;;;;;;;7.63;5.50;;;;;;;9.05;62.23;98549.69;5029403;28;20796;-81
2022/04/21 06:23:26;;;;;;;7.55;5.15;;;;;;;9.11;62.09;98541.78;5027834;28;20033;-81
2022/04/21 06:25:58;;;;;;;7.70;5.50;;;;;;;9.13;62.39;98534.38;5042709;28;20467;-80
2022/04/21 06:28:25;;;;;;;5.10;4.32;;;;;;;9.20;62.93;98535.78;5026989;28;20124;-81
2022/04/21 06:30:50;;;;;;;9.75;4.65;;;;;;;9.20;62.44;98537.63;5024307;28;20026;-82
2022/04/21 06:33:16;;;;;;;7.15;5.63;;;;;;;9.25;62.95;98541.19;5030041;28;20029;-81
2022/04/21 06:35:41;;;;;;;12.88;6.00;;;;;;;9.21;62.33;98537.41;5029774;28;20033;-81
2022/04/21 06:38:07;;;;;;;8.02;5.00;;;;;;;9.23;62.14;98539.81;5010301;28;20041;-81
2022/04/21 06:40:33;;;;;;;7.07;5.47;;;;;;;9.24;62.61;98538.78;5030851;28;20061;-81
2022/04/21 06:43:02;;;;;;;6.57;4.63;;;;;;;9.24;62.34;98542.22;5007514;28;20128;-80
2022/04/21 06:48:13;;;;;;;6.72;5.18;;;;;;;9.31;62.41;98548.16;5024595;28;20099;-81
2022/04/21 06:50:39;;;;;;;8.25;5.43;;;;;;;9.38;63.00;98548.00;5009500;28;20037;-81
2022/04/21 06:53:07;;;;;;;7.43;5.22;;;;;;;9.36;62.45;98542.91;5024104;28;20307;-81
2022/04/21 06:55:33;;;;;;;8.48;5.78;;;;;;;9.41;62.61;98548.31;5005062;28;20041;-81
2022/04/21 06:57:58;;;;;;;9.25;5.47;;;;;;;9.44;61.76;98534.47;5029891;28;20477;-81
2022/04/21 07:00:27;;;;;;;6.72;5.15;;;;;;;9.44;62.43;98525.69;5009616;28;20038;-80
2022/04/21 07:02:55;;;;;;;12.50;5.72;;;;;;;9.47;62.05;98525.19;5029899;28;20030;-81
2022/04/21 07:05:22;;;;;;;9.45;5.97;;;;;;;9.54;62.15;98531.94;5027002;28;20462;-81
2022/04/21 07:07:48;;;;;;;9.52;5.32;;;;;;;9.50;62.07;98530.03;5025789;28;20084;-81
2022/04/21 07:10:14;;;;;;;9.85;5.13;;;;;;;9.49;62.38;98526.56;5021256;28;20033;-81
2022/04/21 07:12:39;;;;;;;7.63;5.15;;;;;;;9.53;62.59;98516.19;5017894;28;20040;-81
2022/04/21 07:15:09;;;;;;;5.40;4.82;;;;;;;9.63;61.93;98525.09;5021943;28;20059;-81
2022/04/21 07:17:37;;;;;;;13.52;5.25;;;;;;;9.65;62.09;98533.66;5028273;28;20554;-81
2022/04/21 07:20:04;;;;;;;9.70;5.68;;;;;;;9.68;62.18;98543.00;5035465;28;20030;-81
2022/04/21 07:22:29;;;;;;;7.18;5.05;;;;;;;9.69;62.09;98540.13;5010000;28;20144;-80
2022/04/21 07:24:56;;;;;;;7.50;5.35;;;;;;;9.67;61.93;98552.06;5028227;28;20112;-81
2022/04/21 07:27:21;;;;;;;5.07;4.57;;;;;;;9.74;62.24;98542.81;5029965;28;20446;-81
2022/04/21 07:29:47;;;;;;;6.43;4.63;;;;;;;9.81;61.98;98543.44;5020388;28;20124;-81
2022/04/21 07:32:13;;;;;;;10.00;5.00;;;;;;;9.78;62.87;98543.13;5015271;28;20072;-81
2022/04/21 07:34:38;;;;;;;5.20;4.70;;;;;;;9.73;61.77;98540.41;5021948;28;20030;-81
2022/04/21 07:37:04;;;;;;;6.47;5.07;;;;;;;9.77;62.52;98542.31;5026169;28;20076;-80
2022/04/21 07:39:30;;;;;;;6.88;5.07;;;;;;;9.78;62.50;98541.25;5030476;28;20030;-80
2022/04/21 07:41:57;;;;;;;8.30;5.10;;;;;;;9.91;61.57;98542.75;5016377;28;20698;-80
2022/04/21 07:44:22;;;;;;;9.80;5.05;;;;;;;9.83;61.62;98533.31;4996427;28;20047;-80
2022/04/21 07:46:48;;;;;;;8.02;5.43;;;;;;;9.94;62.76;98538.78;5022172;28;20747;-80
2022/04/21 07:53:13;;;;;;;8.10;5.68;;;;;;;9.97;62.29;98543.59;5009749;28;20124;-80
2022/04/21 07:54:43;;;;;;;6.50;5.07;;;;;;;10.09;61.83;98550.38;5024179;28;20041;-80
2022/04/21 07:57:09;;;;;;;6.60;4.60;;;;;;;10.10;61.55;98545.84;5027292;28;20500;-80
2022/04/21 07:59:34;;;;;;;6.75;5.25;;;;;;;10.15;62.19;98546.75;5022847;28;20025;-80
2022/04/21 08:02:01;;;;;;;7.55;5.32;;;;;;;10.12;61.59;98544.56;5024090;28;20042;-80
2022/04/21 08:04:27;;;;;;;6.32;5.03;;;;;;;10.32;61.69;98542.09;5003153;28;20030;-80
2022/04/21 08:06:53;;;;;;;5.93;4.60;;;;;;;10.38;61.50;98543.72;5025455;28;20496;-80
2022/04/21 08:09:19;;;;;;;9.23;4.80;;;;;;;10.38;60.95;98545.59;5025694;28;20111;-80
2022/04/21 08:11:44;;;;;;;11.45;5.35;;;;;;;10.42;61.07;98554.69;5011693;28;20026;-80
2022/04/21 08:14:09;;;;;;;8.00;4.75;;;;;;;10.45;61.10;98552.34;5003161;28;20029;-80
2022/04/21 08:16:35;;;;;;;7.55;4.82;;;;;;;10.52;60.97;98550.25;5025928;28;20045;-80
2022/04/21 08:19:00;;;;;;;7.55;4.93;;;;;;;10.63;60.90;98555.66;5025949;28;20029;-80
2022/04/21 08:21:25;;;;;;;6.82;4.38;;;;;;;10.65;60.57;98548.22;5017256;28;20033;-80
2022/04/21 08:23:51;;;;;;;8.00;5.07;;;;;;;10.68;60.58;98547.72;5001941;28;20025;-80
2022/04/21 08:34:30;;;;;;;5.68;4.65;;;;;;;10.79;60.70;98560.84;5042375;28;20063;-80
2022/04/21 08:36:55;;;;;;;5.13;4.47;;;;;;;10.79;60.22;98558.19;5024865;28;20036;-80
2022/04/21 08:39:21;;;;;;;8.98;5.07;;;;;;;10.84;60.46;98560.91;5030931;28;20025;-81
2022/04/21 08:41:51;;;;;;;5.60;5.10;;;;;;;10.93;59.78;98556.69;5021966;28;20536;-80
2022/04/21 08:44:20;;;;;;;6.10;4.85;;;;;;;10.92;60.84;98551.63;5027351;28;20495;-80
2022/04/21 08:46:47;;;;;;;9.40;5.07;;;;;;;10.94;60.15;98552.16;5030008;28;20431;-80
2022/04/21 08:49:17;;;;;;;5.57;4.72;;;;;;;11.05;60.36;98559.94;5014567;28;20081;-80
2022/04/21 08:51:42;;;;;;;5.78;4.88;;;;;;;11.00;60.53;98545.78;5021933;28;20106;-80
2022/04/21 08:54:08;;;;;;;8.30;5.38;;;;;;;11.11;60.31;98550.94;5020532;28;20496;-80
2022/04/21 08:56:34;;;;;;;6.72;4.55;;;;;;;11.22;60.12;98549.13;5007903;28;20052;-80
2022/04/21 08:59:09;;;;;;;7.93;5.22;;;;;;;11.27;60.21;98549.13;5021884;28;20480;-80
2022/04/21 09:01:34;;;;;;;8.43;4.55;;;;;;;11.46;60.14;98544.13;5008603;28;20490;-80
2022/04/21 09:04:01;;;;;;;6.05;5.07;;;;;;;11.53;59.90;98547.38;5009161;28;20037;-80
2022/04/21 09:06:27;;;;;;;6.13;5.07;;;;;;;11.55;59.87;98551.41;4999900;28;20032;-80
2022/04/21 09:09:16;;;;;;;9.30;5.05;;;;;;;11.69;59.68;98547.19;5026958;28;20086;-80
2022/04/21 09:11:43;;;;;;;6.75;4.47;;;;;;;11.73;59.58;98540.25;5031149;28;20022;-80
2022/04/21 09:14:15;;;;;;;11.05;5.53;;;;;;;11.88;59.43;98553.66;5021128;28;20061;-80
2022/04/21 09:16:40;;;;;;;5.18;3.90;;;;;;;11.85;58.75;98554.19;5021291;28;20029;-80
2022/04/21 09:19:05;;;;;;;9.02;4.70;;;;;;;11.97;58.94;98556.63;5007689;28;20041;-80
2022/04/21 09:21:38;;;;;;;4.72;4.13;;;;;;;11.94;59.10;98560.66;5015816;28;20392;-80
2022/04/21 09:24:24;;;;;;;5.90;4.60;;;;;;;12.00;59.11;98559.59;5011163;28;20112;-80
2022/04/21 09:26:50;;;;;;;6.32;5.40;;;;;;;12.15;58.15;98558.81;5019461;28;20382;-80
2022/04/21 09:29:31;;;;;;;9.30;6.32;;;;;;;12.04;58.89;98555.31;5016697;28;20388;-80
2022/04/21 09:32:02;;;;;;;7.18;5.00;;;;;;;12.16;58.77;98548.91;5019053;28;20033;-80
2022/04/21 09:34:28;;;;;;;8.52;5.82;;;;;;;12.09;59.24;98551.84;5017625;28;20022;-80
2022/04/21 09:36:57;;;;;;;7.22;5.00;;;;;;;12.18;58.98;98546.78;4997549;28;20033;-80
2022/04/21 09:39:23;;;;;;;7.70;4.25;;;;;;;12.22;58.85;98545.16;5024551;28;20029;-80
2022/04/21 09:41:55;;;;;;;10.60;5.82;;;;;;;12.36;58.68;98543.59;5001855;28;20036;-80
2022/04/21 09:47:20;;;;;;;6.88;4.68;;;;;;;12.33;58.88;98550.28;5026737;28;20036;-81
2022/04/21 09:49:45;;;;;;;7.60;5.10;;;;;;;12.43;58.42;98550.25;5033430;28;20029;-80
2022/04/21 09:52:12;;;;;;;9.10;5.55;;;;;;;12.39;58.28;98554.53;5035087;28;20029;-81
2022/04/21 09:54:40;;;;;;;13.20;5.03;;;;;;;12.47;58.40;98556.69;5024559;28;20029;-81
2022/04/21 09:57:07;;;;;;;5.95;4.90;;;;;;;12.57;58.28;98551.34;5032535;28;20034;-81
2022/04/21 09:59:36;;;;;;;4.85;4.35;;;;;;;12.51;58.76;98551.63;5000602;28;20041;-81
2022/04/21 10:02:03;;;;;;;8.02;5.53;;;;;;;12.56;58.11;98551.59;5025281;28;20025;-80
2022/04/21 10:04:29;;;;;;;4.93;4.35;;;;;;;12.61;58.06;98557.75;5015581;28;20516;-81
2022/04/21 10:06:56;;;;;;;7.45;5.13;;;;;;;12.68;58.11;98549.47;5031702;28;20482;-81
2022/04/21 10:09:23;;;;;;;11.00;4.45;;;;;;;12.69;57.91;98553.72;5016696;28;20034;-81
2022/04/21 10:11:52;;;;;;;7.82;4.68;;;;;;;12.71;57.78;98551.63;5003657;28;20409;-81
2022/04/21 10:14:17;;;;;;;7.20;4.28;;;;;;;12.80;57.86;98555.31;5023310;28;20030;-80
2022/04/21 10:16:43;;;;;;;8.95;4.55;;;;;;;12.88;57.95;98549.44;5015768;28;20377;-81
2022/04/21 10:19:11;;;;;;;8.63;5.38;;;;;;;12.83;57.95;98552.13;5043856;28;20063;-81
2022/04/21 10:21:52;;;;;;;5.50;4.25;;;;;;;12.90;58.17;98549.16;5035158;28;20466;-80
2022/04/21 10:24:26;;;;;;;6.30;5.05;;;;;;;12.89;58.33;98532.28;5029853;28;20030;-80
2022/04/21 10:26:52;;;;;;;10.40;5.35;;;;;;;12.90;58.37;98533.09;5042902;28;20136;-80
2022/04/21 10:29:18;;;;;;;6.75;4.68;;;;;;;12.93;58.06;98536.03;5023904;28;20160;-80
2022/04/21 10:31:58;;;;;;;6.03;4.88;;;;;;;12.95;58.40;98528.53;5032673;28;20582;-80
2022/04/21 10:34:42;;;;;;;6.43;4.82;;;;;;;13.06;58.23;98532.81;5034181;28;20029;-80
2022/04/21 10:37:19;;;;;;;9.93;5.00;;;;;;;13.18;58.01;98535.19;5025395;28;20024;-80
2022/04/21 10:40:05;;;;;;;7.13;5.97;;;;;;;13.25;57.96;98547.25;5029930;28;20034;-80
2022/04/21 10:42:52;;;;;;;7.20;5.30;;;;;;;13.27;57.97;98538.94;5030307;28;20033;-80
2022/04/21 10:45:23;;;;;;;7.10;4.53;;;;;;;13.17;58.29;98545.09;5034743;28;20513;-80
2022/04/21 10:48:08;;;;;;;7.45;4.40;;;;;;;13.22;58.13;98539.75;5027814;28;20040;-80
2022/04/21 10:50:39;;;;;;;8.38;4.80;;;;;;;13.20;58.35;98539.22;5026919;28;20116;-81
2022/04/21 10:58:33;;;;;;;14.45;5.40;;;;;;;13.30;58.28;98539.19;5018406;28;20084;-80
2022/04/21 11:01:09;;;;;;;10.02;5.20;;;;;;;13.34;57.43;98537.56;5016980;28;20065;-80
2022/04/21 11:03:36;;;;;;;7.00;4.78;;;;;;;13.40;57.52;98544.53;5010478;28;20401;-80
2022/04/21 11:06:19;;;;;;;7.47;5.47;;;;;;;13.48;57.44;98529.72;5027640;28;20049;-80
2022/04/21 11:08:45;;;;;;;9.90;5.20;;;;;;;13.37;57.61;98528.97;5016275;28;20045;-80
2022/04/21 11:11:13;;;;;;;6.47;5.32;;;;;;;13.38;57.91;98529.78;5031327;28;20091;-80
2022/04/21 11:13:52;;;;;;;4.75;4.30;;;;;;;13.46;57.55;98530.00;5016601;28;20029;-80
2022/04/21 11:16:57;;;;;;;9.40;5.25;;;;;;;13.49;57.18;98528.66;5027835;28;20057;-80
2022/04/21 11:19:28;;;;;;;6.47;4.63;;;;;;;13.63;57.39;98529.66;4972847;28;20038;-80
2022/04/21 11:21:53;;;;;;;8.13;4.53;;;;;;;13.68;57.08;98518.09;4972824;28;20031;-80
2022/04/21 11:24:19;;;;;;;9.68;4.78;;;;;;;13.63;57.54;98518.16;5008914;28;20049;-80
2022/04/21 11:26:52;;;;;;;6.45;4.57;;;;;;;13.72;57.09;98511.09;5024711;28;20414;-80
2022/04/21 11:29:17;;;;;;;6.18;4.35;;;;;;;13.68;57.28;98518.91;5029583;28;20393;-80
2022/04/21 11:31:43;;;;;;;8.40;5.20;;;;;;;13.81;57.36;98512.13;5024944;28;20029;-80
2022/04/21 11:34:09;;;;;;;6.22;4.50;;;;;;;13.77;57.53;98511.09;5027920;28;20432;-80
2022/04/21 11:36:40;;;;;;;6.38;4.68;;;;;;;13.94;56.90;98515.00;5026499;28;20072;-80
2022/04/21 11:39:10;;;;;;;7.70;5.13;;;;;;;14.04;56.91;98501.50;5021026;28;20052;-80
2022/04/21 11:41:41;;;;;;;5.95;4.63;;;;;;;14.06;56.85;98504.75;5024388;28;20126;-80
2022/04/21 11:44:08;;;;;;;19.52;5.32;;;;;;;14.08;56.62;98501.78;5023892;28;20033;-80
2022/04/21 11:46:37;;;;;;;6.40;4.72;;;;;;;14.25;56.58;98502.19;5026423;28;20083;-80
2022/04/21 11:49:03;;;;;;;5.03;4.53;;;;;;;14.42;56.18;98497.22;5023546;28;20482;-80
2022/04/21 11:51:29;;;;;;;8.82;4.35;;;;;;;14.35;56.21;98493.28;5020984;28;20038;-80
2022/04/21 11:54:02;;;;;;;14.45;4.40;;;;;;;14.38;56.31;98493.50;5005036;28;20084;-80
2022/04/21 11:56:27;;;;;;;9.57;5.10;;;;;;;14.52;56.15;98490.97;5020777;28;20108;-80
2022/04/21 11:58:53;;;;;;;7.05;4.13;;;;;;;14.58;55.98;98489.84;5017950;28;20116;-80
2022/04/21 12:06:53;;;;;;;5.15;4.55;;;;;;;14.77;55.58;98482.66;5018896;28;20068;-81
2022/04/21 12:09:21;;;;;;;5.15;4.65;;;;;;;14.74;55.45;98475.97;5022972;28;20072;-80
2022/04/21 12:11:57;;;;;;;5.18;4.45;;;;;;;14.89;55.39;98483.09;5025456;28;20055;-81
2022/04/21 12:14:24;;;;;;;5.57;4.05;;;;;;;14.84;55.37;98477.78;5021735;28;20033;-80
2022/04/21 12:16:55;;;;;;;6.25;4.40;;;;;;;14.91;55.71;98468.28;4999259;28;20120;-81
2022/04/21 12:19:39;;;;;;;6.03;3.90;;;;;;;15.07;55.43;98470.81;5023799;28;20083;-80
2022/04/21 12:22:07;;;;;;;5.82;4.53;;;;;;;15.06;55.40;98479.94;5024849;28;20022;-80
2022/04/21 12:24:40;;;;;;;11.65;4.68;;;;;;;15.14;55.31;98471.25;5021982;28;20111;-80
2022/04/21 12:27:20;;;;;;;6.50;5.07;;;;;;;15.30;55.01;98464.59;5010586;28;20025;-80